Vue régionale

METAR et TAF

Jeudi 25 avril 2019 à 05h55

Visibilités horizontales observées à différents aéroports. Les observations (METAR) et prévisions aéronautiques (TAF) complètes sont disponibles en cliquant sur l’icône correspondante.

  • Luxemburg (ELLX)

    Taf: TAF ELLX 242300Z 2500/2606 16010KT CAVOK BECMG 2514/2517 22005KT TEMPO 2515/2606 -SHRA SCT018TCU BKN035 TEMPO 2521/2603 4500 RA SCT010 BKN020=

    Metar: METAR ELLX 250320Z 14007KT 120V180 CAVOK 07/05 Q1006 NOSIG=

  • Spangdahlem (ETAD)

    Taf: TAF ETAD 241956Z 2420/2602 13009KT 9000 -SHRA BKN030 BKN120 QNH2971INS BECMG 2420/2421 19009KT 9999 NSW SCT035 QNH2971INS BECMG 2504/2505 19015G25KT 9999 BKN060 QNH2975INS TEMPO 2504/2508 19022G30KT BECMG 2514/2515 19015KT 9000 -SHRA BKN040 QNH2975INS BECMG 2517/2518 23012KT 9000 -SHRA BKN015 BKN040 QNH2976INS TX19/2515Z TN08/2504Z LAST NO AMDS AFT 2420=

    Metar: nil

  • Metz/Nancy (LFJL)

    Taf: TAF LFJL 242300Z 2500/2524 18012KT CAVOK TEMPO 2506/2512 4500 -RA TEMPO 2512/2515 23020G30KT FEW050TCU TEMPO 2515/2519 3000 SHRA BKN013 FEW040CB BECMG 2519/2521 20005KT TEMPO 2521/2524 3000 RA=

    Metar: nil

  • Saarbrücken/Intl (EDDR)

    Taf: TAF EDDR 242300Z 2500/2524 11006KT CAVOK BECMG 2515/2517 28008KT TEMPO 2515/2517 26015G30KT PROB30 TEMPO 2515/2517 24020G40KT TSRA BKN030CB PROB40 TEMPO 2517/2521 RA BKN008=

    Metar: nil

  • Hahn (EDFH)

    Taf: TAF EDFH 242300Z 2500/2524 15012KT CAVOK TEMPO 2508/2516 16015G25KT BECMG 2516/2518 25009KT PROB30 TEMPO 2516/2518 24020G30KT TSRA BKN025CB PROB40 TEMPO 2518/2521 RA BKN006=

    Metar: nil

  • Ramstein (ETAR)

    Taf: TAF AMD ETAR 2503/2608 14006KT 9999 SCT070 QNH2971INS BECMG 2504/2505 14006KT 9999 BKN050 QNH2970INS BECMG 2518/2519 27010G20KT 8000 -SHRA BKN040 620606 QNH2964INS BECMG 2600/2601 25009KT 8000 -SHRA BKN010 620606 QNH2966INS TX16/2515Z TN02/2503Z=

    Metar: nil

  • Nancy/Ochey (LFSO)

    Taf: TAF LFSO 250200Z NIL=

    Metar: nil

  • Liège Bierset (EBLG)

    Taf: TAF EBLG 242320Z 2500/2606 17011KT 9999 FEW024 PROB40 TEMPO 2507/2510 4000 RA SHRA PROB40 TEMPO 2509/2515 18017G28KT PROB30 TEMPO 2514/2518 4000 RA SHRA=

    Metar: nil

  • Saint-Dizier (LFSI)

    Taf: TAF LFSI 250200Z 2503/2603 13010KT CAVOK TEMPO 2506/2518 16015G25KT 4000 -SHRA BKN050TCU=

    Metar: nil

  • Maastricht/Zuid Limburg (EHBK)

    Taf: TAF EHBK 242302Z 2500/2606 17008KT 9999 BKN045 BECMG 2507/2510 17015G25KT TEMPO 2514/2521 6000 RA SHRA BKN020 FEW060CB PROB30 TEMPO 2514/2517 20016G30KT 4000 TSRA SCT060CB BECMG 2515/2518 21008KT=

    Metar: nil

  • Köln/Köln-Bonn (EDDK)

    Taf: TAF EDDK 242300Z 2500/2606 14012KT CAVOK TEMPO 2500/2507 VRB03KT TEMPO 2510/2516 16015G25KT TEMPO 2518/2606 VRB03KT 4500 -RA=

    Metar: METAR EDDK 250320Z 11006KT 080V160 CAVOK 09/06 Q1007 NOSIG=

  • Charleroi (EBCI)

    Taf: TAF EBCI 242320Z 2500/2606 17011KT 9999 FEW024 PROB40 TEMPO 2506/2510 4000 RA SHRA PROB40 TEMPO 2509/2515 18017G28KT PROB30 TEMPO 2514/2518 4000 RA SHRA=

    Metar: nil

  • Wiesbaden (ETOU)

    Taf: TAF ETOU 2503/2609 16009KT 9999 SCT080 QNH2974INS BECMG 2511/2512 14012KT 9999 BKN080 QNH2970INS BECMG 2519/2520 30010G18KT 9999 SCT020 BKN050 QNH2966INS BECMG 2603/2604 26006KT 8000 SHRA BKN020 620806 QNH2970INS TX20/2514Z TN04/2504Z=

    Metar: nil

  • Karlsruhe/Baden-Baden (EDSB)

    Taf: TAF EDSB 250300Z 2504/2524 VRB03KT 8000 NSC PROB30 TEMPO 2504/2507 4000 BR BECMG 2510/2512 33005KT BECMG 2515/2517 24006KT=

    Metar: nil

  • Chalons/Vatry (LFOK)

    Taf: TAF LFOK 242300Z 2500/2524 16010KT 9999 BKN030 TEMPO 2505/2519 16015G25KT 4000 SHRA BKN030TCU=

    Metar: nil

  • Brüssel (EBBR)

    Taf: TAF EBBR 242320Z 2500/2606 17010KT 9999 FEW024 PROB40 TEMPO 2507/2510 4000 RA SHRA PROB40 TEMPO 2509/2515 18017G28KT PROB30 TEMPO 2515/2518 4000 RA SHRA=

    Metar: METAR EBBR 250320Z 16012KT CAVOK 11/07 Q1002 NOSIG=

  • Düsseldorf (EDDL)

    Taf: TAF EDDL 242300Z 2500/2606 15012KT CAVOK BECMG 2505/2508 17015G25KT BECMG 2515/2518 20006KT TEMPO 2518/2606 VRB03KT 4500 -RA=

    Metar: nil

  • Luxeuil (LFSX)

    Taf: TAF LFSX 250200Z NIL=

    Metar: nil

  • Eindhoven (EHEH)

    Taf: TAF EHEH 242315Z 2500/2606 16008KT CAVOK TEMPO 2509/2517 18015G25KT TEMPO 2513/2520 20020G30KT SCT050CB BKN070 BECMG 2601/2603 21008KT=

    Metar: nil

  • Niederrhein (EDLV)

    Taf: TAF EDLV 250325Z 2504/2524 14008KT CAVOK BECMG 2505/2508 17015G30KT BECMG 2515/2518 20004KT TEMPO 2518/2524 18010KT 4000 RA SCT008 BKN014=

    Metar: nil

  • Dortmund/Wickede (EDLW)

    Taf: TAF EDLW 242300Z NIL=

    Metar: nil

  • Stuttgart/Echterdingen (EDDS)

    Taf: TAF EDDS 242300Z 2500/2524 VRB02KT CAVOK BECMG 2509/2511 14008KT BECMG 2518/2520 25004KT TEMPO 2518/2520 25012KT=

    Metar: METAR EDDS 250320Z VRB02KT CAVOK 05/02 Q1010=

  • Basel-Mühlhausen (LFSB)

    Taf: TAF LFSB 242300Z 2500/2524 12010KT CAVOK PROB40 TEMPO 2514/2524 27015G35KT SHRA SCT060TCU=

    Metar: METAR LFSB 250330Z NIL=

  • Lille (LFQQ)

    Taf: TAF LFQQ 242300Z 2500/2606 14008KT 9999 SCT040 TEMPO 2500/2503 4000 SHRA BKN040TCU BECMG 2505/2507 16015G25KT TEMPO 2508/2512 4000 SHRA BKN010 BKN030TCU FM251200 18012KT 9999 BKN030 TEMPO 2515/2518 VRB18G28KT 4000 SHRA BKN030CB=

    Metar: nil

  • Paris/Charles de Gaulle (LFPG)

    Taf: TAF LFPG 242300Z 2500/2606 15010KT CAVOK TX15/2513Z TN07/2504Z PROB40 TEMPO 2503/2508 15015G25KT 4000 RA BKN013 TEMPO 2512/2518 19015G25KT -SHRA SCT025TCU PROB40 TEMPO 2514/2518 4000 -TSRA SCT025CB BECMG 2604/2606 4000 BR BKN004=

    Metar: nil

  • Paderborn/Lippstadt (EDLP)

    Taf: TAF EDLP 242300Z 2500/2524 18009KT CAVOK TEMPO 2508/2515 17015G25KT BECMG 2515/2518 VRB03KT=

    Metar: nil

  • Paris/Le Bourget (LFPB)

    Taf: TAF LFPB 242300Z 2500/2524 15010KT CAVOK PROB40 TEMPO 2503/2508 15015G25KT 4000 RA BKN013 TEMPO 2512/2518 19015G25KT -SHRA SCT025TCU PROB40 TEMPO 2514/2518 4000 -TSRA SCT025CB=

    Metar: METAR LFPB 250330Z AUTO 15009KT 120V180 9999 -RA FEW047 BKN058 OVC068 11/09 Q1000 TEMPO 15015G25KT 4000 RA BKN013=

  • Rotterdam (EHRD)

    Taf: TAF EHRD 242255Z 2500/2606 15010KT 9999 FEW040 BECMG 2505/2508 15015KT TEMPO 2513/2519 17020G30KT 6000 RA SHRA SCT025CB BKN040 BECMG 2516/2519 19007KT=

    Metar: nil

  • Zürich/Kloten (LSZH)

    Taf: TAF LSZH 250225Z 2503/2609 VRB03KT CAVOK TX23/2515Z TN04/2505Z TN07/2605Z BECMG 2508/2510 06006KT TEMPO 2511/2518 16015G30KT TEMPO 2518/2522 28015G30KT BECMG 2522/2601 25006KT 9999 BKN040 TEMPO 2600/2609 RA=

    Metar: METAR LSZH 250320Z VRB02KT CAVOK 04/02 Q1009 NOSIG=

  • Oostende/Intl (EBOS)

    Taf: TAF EBOS 242320Z 2500/2606 16011KT 9999 FEW024 PROB40 TEMPO 2407/2512 17016G30KT 4000 RA SHRA PROB40 TEMPO 2516/2520 4000 RA SHRA=

    Metar: nil

  • Paris/Orly (LFPO)

    Taf: TAF LFPO 242300Z 2500/2606 16008KT 9999 BKN030 TEMPO 2500/2509 4000 -RA BKN012 BKN025TCU TEMPO 2509/2517 20015G25KT 4000 SHRA SCT025CB PROB40 TEMPO 2513/2517 2000 TSRA BKN020CB TEMPO 2520/2604 CAVOK PROB40 TEMPO 2604/2606 4000 BR BKN006=

    Metar: nil

  • Beauvais (LFOB)

    Taf: TAF LFOB 242300Z 2500/2524 16010KT 9999 SCT040 TEMPO 2500/2518 16015G25KT 4000 RA BKN012 BKN030TCU PROB40 TEMPO 2513/2518 VRB20G35KT 2000 TSRA BKN030CB=

    Metar: nil

  • Münster/Intl (EDDG)

    Taf: TAF EDDG 242300Z 2500/2524 15006KT CAVOK TEMPO 2500/2506 BKN014 BECMG 2505/2508 17012KT TEMPO 2510/2516 17015G25KT TEMPO 2519/2524 VRB03KT=

    Metar: METAR EDDG 250320Z 12004KT 060V170 CAVOK 09/07 Q1006 NOSIG=

  • Illesheim (ETIK)

    Taf: TAF ETIK 242200Z 2422/2604 27009KT 9999 FEW100 QNH2981INS BECMG 2506/2507 12012G18KT 9999 SKC QNH2975INS BECMG 2516/2517 13009KT 9999 FEW150 QNH2972INS TX25/2514Z TN05/2504Z=

    Metar: nil

  • Duebendorf (LSMD)

    Taf: TAF AMD LSMD 241950Z 2419/2523 VRB03KT 9999 FEW020 BECMG 2420/2423 CAVOK TEMPO 2509/2521 17015G25KT PROB40 TEMPO 2510/2518 17020G30KT PROB40 TEMPO 2518/2523 9999 FEW040 BKN100=

    Metar: nil

  • Villacoublay (LFPV)

    Taf: TAF LFPV 250200Z 2503/2603 16008KT 9999 BKN045 TEMPO 2503/2509 4000 -RA TEMPO 2511/2517 20015G25KT 4000 -SHRA BKN040CB PROB30 TEMPO 2514/2516 2000 TSRA=

    Metar: nil

  • Payerne (LSMP)

    Taf: TAF LSMP 241625Z 2417/2523 23010KT 9999 -RA BKN050 BECMG 2417/2419 VRB03KT CAVOK BECMG 2519/2521 9999 FEW040 BKN070=

    Metar: nil

  • Amsterdam/Schipol (EHAM)

    Taf: TAF EHAM 242255Z 2500/2606 15010KT 9999 FEW040 BECMG 2505/2508 15015KT TEMPO 2514/2520 17020G30KT 6000 RA SHRA SCT025TCU BKN040 BECMG 2516/2519 18007KT=

    Metar: METAR EHAM 250325Z 13009KT CAVOK 09/08 Q1003 NOSIG=

  • Emmen (LSME)

    Taf: TAF LSME 241625Z 2417/2523 13004KT CAVOK PROB30 TEMPO 2417/2420 28015G35KT PROB40 TEMPO 2507/2518 13015G30KT PROB40 TEMPO 2514/2523 9999 BKN110=

    Metar: nil

  • Friedrichshafen (EDNY)

    Taf: TAF EDNY 242300Z 2500/2524 05005KT CAVOK BECMG 2511/2513 18010KT BECMG 2520/2522 25004KT=

    Metar: nil

  • Alpnach (LSMA)

    Taf: TAF AMD LSMA 241952Z 2419/2523 VRB03KT CAVOK BECMG 2507/2510 05012KT TEMPO 2509/2521 22018G30KT TEMPO 2514/2523 9999 BKN120=

    Metar: nil

  • Meiringen (LSMM)

    Taf: TAF LSMM 241625Z 2417/2523 08020G35KT 9999 FEW020 SCT030 BECMG 2417/2420 CAVOK TEMPO 2418/2509 08012G25KT PROB40 TEMPO 2419/2508 27008KT TEMPO 2509/2523 10025G40KT 9999 SCT140 PROB40 TEMPO 2508/2515 10030G50KT=

    Metar: nil

  • Nürnberg (EDDN)

    Taf: TAF EDDN 242300Z 2500/2524 VRB03KT CAVOK BECMG 2506/2509 12010KT BECMG 2522/2524 12005KT=

    Metar: METAR EDDN 250320Z 10005KT CAVOK 07/03 Q1011=

  • Rouen (LFOP)

    Taf: TAF LFOP 242300Z NIL=

    Metar: nil

  • Evreux (LFOE)

    Taf: TAF LFOE 250200Z 2503/2603 11008KT 9999 SCT030 TEMPO 2503/2505 18015G25KT 4000 RA BKN010 BKN030TCU BECMG 2505/2507 19012KT TEMPO 2508/2519 4000 SHRA BKN020CB PROB40 TEMPO 2509/2519 19015G25KT 2000 TSRA=

    Metar: nil

  • Erfurt/Bindersleben (EDDE)

    Taf: TAF EDDE 242300Z 2500/2524 21008KT CAVOK BECMG 2507/2510 10010KT=

    Metar: nil